createdAt,value
2022-08-03T00:00:07.414Z,1011.84
2022-08-03T00:01:07.420Z,1011.83
2022-08-03T00:02:08.200Z,1011.80
2022-08-03T00:03:07.462Z,1011.81
2022-08-03T00:04:07.369Z,1011.75
2022-08-03T00:05:07.357Z,1011.74
2022-08-03T00:06:07.368Z,1011.76
2022-08-03T00:07:07.472Z,1011.73
2022-08-03T00:08:07.342Z,1011.79
2022-08-03T00:09:07.311Z,1011.77
2022-08-03T00:10:07.302Z,1011.74
2022-08-03T00:11:07.690Z,1011.75
2022-08-03T00:12:07.280Z,1011.75
2022-08-03T00:13:07.278Z,1011.74
2022-08-03T00:14:07.285Z,1011.71
2022-08-03T00:15:10.523Z,1011.72
2022-08-03T00:16:08.251Z,1011.69
2022-08-03T00:17:07.219Z,1011.63
2022-08-03T00:18:07.213Z,1011.60
2022-08-03T00:19:08.164Z,1011.67
2022-08-03T00:20:07.202Z,1011.63
2022-08-03T00:21:07.198Z,1011.61
2022-08-03T00:22:07.357Z,1011.64
2022-08-03T00:23:07.154Z,1011.60
2022-08-03T00:24:07.147Z,1011.57
2022-08-03T00:25:07.133Z,1011.63
2022-08-03T00:26:07.142Z,1011.62
2022-08-03T00:27:07.105Z,1011.58
2022-08-03T00:28:07.094Z,1011.58
2022-08-03T00:29:07.095Z,1011.59
2022-08-03T00:30:07.073Z,1011.54
2022-08-03T00:31:07.076Z,1011.57
2022-08-03T00:32:07.048Z,1011.57
2022-08-03T00:33:07.039Z,1011.55
2022-08-03T00:34:07.028Z,1011.63
2022-08-03T00:35:09.256Z,1011.59
2022-08-03T00:36:07.007Z,1011.57
2022-08-03T00:37:06.994Z,1011.60
2022-08-03T00:38:06.984Z,1011.55
2022-08-03T00:39:06.972Z,1011.55
2022-08-03T00:40:06.967Z,1011.50
2022-08-03T00:41:06.980Z,1011.54
2022-08-03T00:42:06.935Z,1011.51
2022-08-03T00:43:08.613Z,1011.53
2022-08-03T00:44:06.929Z,1011.52
2022-08-03T00:45:07.653Z,1011.51
2022-08-03T00:46:06.906Z,1011.47
2022-08-03T00:47:06.894Z,1011.49
2022-08-03T00:48:06.869Z,1011.49
2022-08-03T00:49:08.087Z,1011.51
2022-08-03T00:50:06.852Z,1011.53
2022-08-03T00:51:06.860Z,1011.53
2022-08-03T00:52:09.559Z,1011.51
2022-08-03T00:53:06.813Z,1011.47
2022-08-03T00:54:06.802Z,1011.49
2022-08-03T00:55:06.817Z,1011.52
2022-08-03T00:56:06.795Z,1011.46
2022-08-03T00:57:06.773Z,1011.39
2022-08-03T00:58:06.770Z,1011.42
2022-08-03T00:59:06.753Z,1011.42
2022-08-03T01:00:06.803Z,1011.40
2022-08-03T01:01:06.841Z,1011.40
2022-08-03T01:02:07.079Z,1011.40
2022-08-03T01:03:06.719Z,1011.34
2022-08-03T01:04:06.692Z,1011.33
2022-08-03T01:05:06.699Z,1011.38
2022-08-03T01:06:06.691Z,1011.40
2022-08-03T01:07:06.675Z,1011.37
2022-08-03T01:08:06.649Z,1011.39
2022-08-03T01:09:06.665Z,1011.36
2022-08-03T01:10:06.641Z,1011.43
2022-08-03T01:11:06.622Z,1011.41
2022-08-03T01:12:06.612Z,1011.43
2022-08-03T01:13:06.694Z,1011.43
2022-08-03T01:14:18.336Z,1011.42
2022-08-03T01:15:07.571Z,1011.37
2022-08-03T01:16:06.557Z,1011.38
2022-08-03T01:17:06.552Z,1011.34
2022-08-03T01:18:06.550Z,1011.35
2022-08-03T01:19:06.552Z,1011.33
2022-08-03T01:20:06.510Z,1011.31
2022-08-03T01:21:06.500Z,1011.29
2022-08-03T01:22:06.506Z,1011.30
2022-08-03T01:23:06.499Z,1011.30
2022-08-03T01:24:06.470Z,1011.28
2022-08-03T01:25:06.466Z,1011.27
2022-08-03T01:26:06.447Z,1011.28
2022-08-03T01:27:06.433Z,1011.27
2022-08-03T01:28:06.451Z,1011.26
2022-08-03T01:29:06.422Z,1011.28
2022-08-03T01:30:06.625Z,1011.23
2022-08-03T01:31:06.391Z,1011.20
2022-08-03T01:32:59.363Z,1011.21
2022-08-03T01:33:07.678Z,1011.24
2022-08-03T01:34:06.406Z,1011.21
2022-08-03T01:35:06.374Z,1011.23
2022-08-03T01:36:07.126Z,1011.19
2022-08-03T01:37:06.691Z,1011.16
2022-08-03T01:38:06.378Z,1011.16
2022-08-03T01:39:06.319Z,1011.18
2022-08-03T01:40:06.293Z,1011.19
2022-08-03T01:41:06.283Z,1011.16
2022-08-03T01:42:06.316Z,1011.18
2022-08-03T01:43:06.268Z,1011.17
2022-08-03T01:44:29.570Z,1011.17
2022-08-03T01:45:07.231Z,1011.17
2022-08-03T01:46:06.221Z,1011.19
2022-08-03T01:47:06.243Z,1011.14
2022-08-03T01:48:06.193Z,1011.14
2022-08-03T01:49:09.257Z,1011.12
2022-08-03T01:50:06.170Z,1011.15
2022-08-03T01:51:06.170Z,1011.17
2022-08-03T01:52:06.167Z,1011.14
2022-08-03T01:53:06.160Z,1011.19
2022-08-03T01:54:06.127Z,1011.17
2022-08-03T01:55:06.685Z,1011.17
2022-08-03T01:56:06.106Z,1011.15
2022-08-03T01:57:06.099Z,1011.15
2022-08-03T01:58:06.935Z,1011.13
2022-08-03T01:59:06.069Z,1011.17
2022-08-03T02:00:06.059Z,1011.17
2022-08-03T02:01:06.141Z,1011.12
2022-08-03T02:02:32.270Z,1011.10
2022-08-03T02:03:07.044Z,1011.11
2022-08-03T02:04:06.017Z,1011.13
2022-08-03T02:05:06.446Z,1011.12
2022-08-03T02:07:02.872Z,1011.13
2022-08-03T02:07:06.984Z,1011.17
2022-08-03T02:08:06.677Z,1011.13
2022-08-03T02:09:05.968Z,1011.11
2022-08-03T02:10:05.945Z,1011.13
2022-08-03T02:11:05.937Z,1011.15
2022-08-03T02:12:06.739Z,1011.14
2022-08-03T02:13:13.023Z,1011.12
2022-08-03T02:14:05.911Z,1011.16
2022-08-03T02:15:05.888Z,1011.13
2022-08-03T02:16:05.885Z,1011.14
2022-08-03T02:17:05.861Z,1011.12
2022-08-03T02:18:05.863Z,1011.16
2022-08-03T02:19:05.855Z,1011.13
2022-08-03T02:20:05.829Z,1011.15
2022-08-03T02:21:11.027Z,1011.13
2022-08-03T02:22:06.805Z,1011.12
2022-08-03T02:23:05.814Z,1011.10
2022-08-03T02:24:05.783Z,1011.10
2022-08-03T02:25:05.778Z,1011.07
2022-08-03T02:26:05.759Z,1011.08
2022-08-03T02:27:05.801Z,1011.09
2022-08-03T02:28:05.775Z,1011.08
2022-08-03T02:29:05.730Z,1011.07
2022-08-03T02:30:05.716Z,1011.10
2022-08-03T02:31:05.705Z,1011.09
2022-08-03T02:32:05.691Z,1011.07
2022-08-03T02:33:05.682Z,1011.09
2022-08-03T02:34:05.684Z,1011.12
2022-08-03T02:35:05.659Z,1011.17
2022-08-03T02:36:05.651Z,1011.14
2022-08-03T02:37:05.634Z,1011.12
2022-08-03T02:38:05.623Z,1011.13
2022-08-03T02:39:05.683Z,1011.14
2022-08-03T02:40:05.604Z,1011.11
2022-08-03T02:41:05.592Z,1011.13
2022-08-03T02:42:05.890Z,1011.10
2022-08-03T02:43:05.567Z,1011.12
2022-08-03T02:44:07.422Z,1011.12
2022-08-03T02:45:05.561Z,1011.13
2022-08-03T02:46:05.564Z,1011.10
2022-08-03T02:47:05.525Z,1011.10
2022-08-03T02:48:05.520Z,1011.08
2022-08-03T02:49:40.462Z,1011.11
2022-08-03T02:50:07.536Z,1011.10
2022-08-03T02:51:05.486Z,1011.11
2022-08-03T02:52:05.465Z,1011.14
2022-08-03T02:53:06.452Z,1011.16
2022-08-03T02:54:05.462Z,1011.18
2022-08-03T02:55:05.429Z,1011.15
2022-08-03T02:56:05.422Z,1011.20
2022-08-03T02:57:05.407Z,1011.16
2022-08-03T02:58:05.399Z,1011.16
2022-08-03T02:59:05.388Z,1011.16
2022-08-03T03:00:05.393Z,1011.16
2022-08-03T03:01:05.555Z,1011.14
2022-08-03T03:02:05.362Z,1011.19
2022-08-03T03:03:05.346Z,1011.16
2022-08-03T03:04:05.350Z,1011.15
2022-08-03T03:05:54.491Z,1011.20
2022-08-03T03:06:06.304Z,1011.15
2022-08-03T03:07:05.295Z,1011.17
2022-08-03T03:08:05.285Z,1011.19
2022-08-03T03:09:06.289Z,1011.20
2022-08-03T03:10:05.266Z,1011.20
2022-08-03T03:11:05.248Z,1011.20
2022-08-03T03:12:05.239Z,1011.19
2022-08-03T03:13:05.225Z,1011.24
2022-08-03T03:14:05.217Z,1011.25
2022-08-03T03:15:05.221Z,1011.19
2022-08-03T03:16:05.192Z,1011.17
2022-08-03T03:17:05.183Z,1011.20
2022-08-03T03:18:05.687Z,1011.22
2022-08-03T03:19:05.188Z,1011.21
2022-08-03T03:20:05.151Z,1011.18
2022-08-03T03:21:05.158Z,1011.15
2022-08-03T03:22:05.128Z,1011.18
2022-08-03T03:23:05.127Z,1011.16
2022-08-03T03:24:05.103Z,1011.15
2022-08-03T03:25:05.090Z,1011.18
2022-08-03T03:26:05.103Z,1011.16
2022-08-03T03:27:05.066Z,1011.14
2022-08-03T03:28:06.217Z,1011.14
2022-08-03T03:29:05.074Z,1011.19
2022-08-03T03:30:05.036Z,1011.20
2022-08-03T03:31:05.039Z,1011.16
2022-08-03T03:32:05.014Z,1011.16
2022-08-03T03:33:05.143Z,1011.21
2022-08-03T03:34:04.989Z,1011.21
2022-08-03T03:35:04.974Z,1011.22
2022-08-03T03:36:04.967Z,1011.20
2022-08-03T03:37:04.970Z,1011.20
2022-08-03T03:38:04.943Z,1011.21
2022-08-03T03:39:15.718Z,1011.19
2022-08-03T03:40:05.921Z,1011.19
2022-08-03T03:41:04.920Z,1011.22
2022-08-03T03:42:04.901Z,1011.17
2022-08-03T03:43:04.885Z,1011.22
2022-08-03T03:44:04.879Z,1011.16
2022-08-03T03:45:04.862Z,1011.19
2022-08-03T03:46:04.886Z,1011.16
2022-08-03T03:47:04.839Z,1011.14
2022-08-03T03:48:04.829Z,1011.16
2022-08-03T03:49:04.864Z,1011.20
2022-08-03T03:50:04.879Z,1011.20
2022-08-03T03:51:04.818Z,1011.17
2022-08-03T03:52:04.814Z,1011.19
2022-08-03T03:53:04.775Z,1011.16
2022-08-03T03:54:04.759Z,1011.20
2022-08-03T03:55:04.751Z,1011.16
2022-08-03T03:56:04.751Z,1011.15
2022-08-03T03:57:04.732Z,1011.15
2022-08-03T03:58:04.718Z,1011.11
2022-08-03T03:59:04.700Z,1011.10
2022-08-03T04:00:04.692Z,1011.09
2022-08-03T04:01:04.719Z,1011.13
2022-08-03T04:02:04.668Z,1011.10
2022-08-03T04:03:04.654Z,1011.09
2022-08-03T04:04:04.648Z,1011.11
2022-08-03T04:05:04.633Z,1011.08
2022-08-03T04:06:04.628Z,1011.06
2022-08-03T04:07:04.677Z,1011.07
2022-08-03T04:08:04.603Z,1011.08
2022-08-03T04:09:04.590Z,1011.09
2022-08-03T04:10:08.863Z,1011.09
2022-08-03T04:11:05.803Z,1011.09
2022-08-03T04:12:04.566Z,1011.12
2022-08-03T04:13:04.542Z,1011.12
2022-08-03T04:14:04.552Z,1011.15
2022-08-03T04:15:04.517Z,1011.10
2022-08-03T04:16:04.540Z,1011.15
2022-08-03T04:17:04.497Z,1011.13
2022-08-03T04:18:04.620Z,1011.12
2022-08-03T04:19:04.473Z,1011.16
2022-08-03T04:20:04.479Z,1011.16
2022-08-03T04:21:04.452Z,1011.16
2022-08-03T04:22:04.571Z,1011.14
2022-08-03T04:23:04.428Z,1011.15
2022-08-03T04:24:05.535Z,1011.19
2022-08-03T04:25:04.406Z,1011.18
2022-08-03T04:26:04.410Z,1011.19
2022-08-03T04:27:04.380Z,1011.20
2022-08-03T04:28:29.601Z,1011.24
2022-08-03T04:29:05.359Z,1011.19
2022-08-03T04:30:04.351Z,1011.20
2022-08-03T04:31:04.352Z,1011.22
2022-08-03T04:32:04.327Z,1011.22
2022-08-03T04:33:04.319Z,1011.21
2022-08-03T04:34:04.318Z,1011.25
2022-08-03T04:35:04.776Z,1011.23
2022-08-03T04:36:04.285Z,1011.26
2022-08-03T04:37:04.269Z,1011.27
2022-08-03T04:38:04.275Z,1011.29
2022-08-03T04:39:04.247Z,1011.29
2022-08-03T04:40:04.244Z,1011.32
2022-08-03T04:41:04.356Z,1011.30
2022-08-03T04:42:08.100Z,1011.31
2022-08-03T04:43:04.385Z,1011.35
2022-08-03T04:44:04.191Z,1011.30
2022-08-03T04:45:04.177Z,1011.35
2022-08-03T04:46:04.173Z,1011.35
2022-08-03T04:47:04.158Z,1011.35
2022-08-03T04:48:04.159Z,1011.36
2022-08-03T04:49:04.152Z,1011.34
2022-08-03T04:50:04.955Z,1011.35
2022-08-03T04:51:04.111Z,1011.33
2022-08-03T04:52:04.723Z,1011.35
2022-08-03T04:53:04.112Z,1011.36
2022-08-03T04:54:04.077Z,1011.35
2022-08-03T04:55:04.063Z,1011.35
2022-08-03T04:56:04.055Z,1011.36
2022-08-03T04:57:04.042Z,1011.32
2022-08-03T04:58:04.045Z,1011.33
2022-08-03T04:59:04.020Z,1011.35
2022-08-03T05:00:04.021Z,1011.35
2022-08-03T05:01:03.996Z,1011.36
2022-08-03T05:02:04.053Z,1011.39
2022-08-03T05:03:03.995Z,1011.35
2022-08-03T05:04:04.962Z,1011.30
2022-08-03T05:05:03.950Z,1011.33
2022-08-03T05:06:11.112Z,1011.34
2022-08-03T05:07:12.527Z,1011.36
2022-08-03T05:08:04.930Z,1011.38
2022-08-03T05:09:04.910Z,1011.36
2022-08-03T05:10:03.902Z,1011.36
2022-08-03T05:11:03.886Z,1011.36
2022-08-03T05:12:03.875Z,1011.37
2022-08-03T05:13:04.729Z,1011.36
2022-08-03T05:14:03.850Z,1011.38
2022-08-03T05:15:03.838Z,1011.40
2022-08-03T05:16:03.827Z,1011.39
2022-08-03T05:17:03.832Z,1011.43
2022-08-03T05:18:03.807Z,1011.38
2022-08-03T05:19:03.794Z,1011.40
2022-08-03T05:20:03.809Z,1011.39
2022-08-03T05:21:05.289Z,1011.42
2022-08-03T05:22:03.766Z,1011.37
2022-08-03T05:23:03.754Z,1011.40
2022-08-03T05:24:03.741Z,1011.37
2022-08-03T05:25:03.771Z,1011.38
2022-08-03T05:26:03.739Z,1011.39
2022-08-03T05:27:03.701Z,1011.40
2022-08-03T05:28:03.696Z,1011.40
2022-08-03T05:29:03.684Z,1011.40
2022-08-03T05:30:29.786Z,1011.42
2022-08-03T05:31:04.673Z,1011.36
2022-08-03T05:32:08.023Z,1011.38
2022-08-03T05:33:03.643Z,1011.39
2022-08-03T05:34:03.631Z,1011.42
2022-08-03T05:36:01.149Z,1011.44
2022-08-03T05:36:04.723Z,1011.43
2022-08-03T05:37:03.593Z,1011.42
2022-08-03T05:38:03.578Z,1011.43
2022-08-03T05:39:03.583Z,1011.45
2022-08-03T05:40:03.572Z,1011.44
2022-08-03T05:41:22.031Z,1011.44
2022-08-03T05:42:04.534Z,1011.45
2022-08-03T05:43:04.285Z,1011.48
2022-08-03T05:44:03.512Z,1011.47
2022-08-03T05:45:03.503Z,1011.52
2022-08-03T05:46:12.539Z,1011.52
2022-08-03T05:47:04.674Z,1011.53
2022-08-03T05:48:03.468Z,1011.52
2022-08-03T05:49:03.532Z,1011.52
2022-08-03T05:50:03.446Z,1011.54
2022-08-03T05:51:03.447Z,1011.54
2022-08-03T05:52:11.976Z,1011.54
2022-08-03T05:53:05.239Z,1011.57
2022-08-03T05:54:03.403Z,1011.55
2022-08-03T05:55:03.387Z,1011.54
2022-08-03T05:56:13.101Z,1011.56
2022-08-03T05:57:04.367Z,1011.52
2022-08-03T05:58:03.747Z,1011.56
2022-08-03T05:59:22.484Z,1011.53
2022-08-03T06:00:04.342Z,1011.54
2022-08-03T06:01:03.317Z,1011.54
2022-08-03T06:02:03.366Z,1011.52
2022-08-03T06:03:03.293Z,1011.54
2022-08-03T06:04:03.299Z,1011.55
2022-08-03T06:05:03.300Z,1011.56
2022-08-03T06:06:03.269Z,1011.59
2022-08-03T06:07:03.251Z,1011.57
2022-08-03T06:08:03.243Z,1011.62
2022-08-03T06:09:03.243Z,1011.56
2022-08-03T06:10:35.857Z,1011.61
2022-08-03T06:11:04.203Z,1011.62
2022-08-03T06:12:03.212Z,1011.62
2022-08-03T06:13:03.555Z,1011.59
2022-08-03T06:14:03.172Z,1011.57
2022-08-03T06:15:03.164Z,1011.55
2022-08-03T06:16:03.195Z,1011.58
2022-08-03T06:17:03.319Z,1011.61
2022-08-03T06:18:03.130Z,1011.60
2022-08-03T06:19:03.127Z,1011.60
2022-08-03T06:20:03.109Z,1011.54
2022-08-03T06:21:14.922Z,1011.61
2022-08-03T06:22:04.101Z,1011.54
2022-08-03T06:23:03.749Z,1011.57
2022-08-03T06:24:03.067Z,1011.56
2022-08-03T06:25:04.164Z,1011.54
2022-08-03T06:26:03.038Z,1011.58
2022-08-03T06:27:03.041Z,1011.54
2022-08-03T06:28:03.024Z,1011.46
2022-08-03T06:29:03.884Z,1011.45
2022-08-03T06:30:02.995Z,1011.49
2022-08-03T06:31:02.982Z,1011.50
2022-08-03T06:32:02.989Z,1011.51
2022-08-03T06:33:02.964Z,1011.49
2022-08-03T06:34:34.303Z,1011.50
2022-08-03T06:35:03.938Z,1011.52
2022-08-03T06:36:02.963Z,1011.50
2022-08-03T06:37:02.930Z,1011.51
2022-08-03T06:38:02.909Z,1011.55
2022-08-03T06:39:02.900Z,1011.52
2022-08-03T06:40:02.889Z,1011.57
2022-08-03T06:41:02.880Z,1011.57
2022-08-03T06:42:02.883Z,1011.53
2022-08-03T06:43:02.857Z,1011.62
2022-08-03T06:44:04.531Z,1011.60
2022-08-03T06:45:02.841Z,1011.70
2022-08-03T06:46:02.819Z,1011.66
2022-08-03T06:47:02.909Z,1011.64
2022-08-03T06:48:02.797Z,1011.65
2022-08-03T06:49:02.815Z,1011.68
2022-08-03T06:50:12.895Z,1011.67
2022-08-03T06:51:03.761Z,1011.67
2022-08-03T06:52:06.767Z,1011.69
2022-08-03T06:53:02.756Z,1011.62
2022-08-03T06:54:02.728Z,1011.69
2022-08-03T06:55:02.736Z,1011.67
2022-08-03T06:56:02.715Z,1011.62
2022-08-03T06:57:02.704Z,1011.66
2022-08-03T06:58:03.387Z,1011.68
2022-08-03T06:59:02.677Z,1011.67
2022-08-03T07:00:08.851Z,1011.72
2022-08-03T07:01:03.779Z,1011.71
2022-08-03T07:02:02.642Z,1011.70
2022-08-03T07:03:02.678Z,1011.76
2022-08-03T07:04:03.300Z,1011.76
2022-08-03T07:05:02.670Z,1011.79
2022-08-03T07:06:02.600Z,1011.72
2022-08-03T07:07:02.596Z,1011.69
2022-08-03T07:08:02.624Z,1011.75
2022-08-03T07:09:02.591Z,1011.74
2022-08-03T07:10:02.630Z,1011.78
2022-08-03T07:11:02.546Z,1011.82
2022-08-03T07:12:02.555Z,1011.74
2022-08-03T07:13:02.532Z,1011.78
2022-08-03T07:14:02.514Z,1011.76
2022-08-03T07:15:03.340Z,1011.73
2022-08-03T07:16:02.507Z,1011.77
2022-08-03T07:17:04.728Z,1011.77
2022-08-03T07:18:03.502Z,1011.81
2022-08-03T07:19:02.462Z,1011.83
2022-08-03T07:20:02.455Z,1011.80
2022-08-03T07:21:03.311Z,1011.83
2022-08-03T07:22:02.535Z,1011.81
2022-08-03T07:23:02.467Z,1011.84
2022-08-03T07:24:02.409Z,1011.81
2022-08-03T07:25:02.836Z,1011.85
2022-08-03T07:26:02.389Z,1011.88
2022-08-03T07:27:02.395Z,1011.87
2022-08-03T07:28:02.369Z,1011.89
2022-08-03T07:29:02.378Z,1011.87
2022-08-03T07:30:02.467Z,1011.89
2022-08-03T07:31:02.460Z,1011.90
2022-08-03T07:32:02.376Z,1011.91
2022-08-03T07:33:02.404Z,1011.87
2022-08-03T07:34:02.309Z,1011.86
2022-08-03T07:35:02.301Z,1011.87
2022-08-03T07:36:03.288Z,1011.89
2022-08-03T07:37:02.278Z,1011.91
2022-08-03T07:38:02.317Z,1011.93
2022-08-03T07:39:15.887Z,1011.91
2022-08-03T07:40:03.251Z,1011.88
2022-08-03T07:41:02.297Z,1011.89
2022-08-03T07:42:02.358Z,1011.94
2022-08-03T07:43:02.221Z,1011.94
2022-08-03T07:44:02.210Z,1011.92
2022-08-03T07:45:02.198Z,1011.95
2022-08-03T07:46:02.207Z,1011.93
2022-08-03T07:47:03.437Z,1011.94
2022-08-03T07:48:02.164Z,1011.92
2022-08-03T07:49:02.234Z,1011.94
2022-08-03T07:50:02.153Z,1011.93
2022-08-03T07:51:02.156Z,1011.94
2022-08-03T07:52:02.129Z,1011.93
2022-08-03T07:53:02.122Z,1011.98
2022-08-03T07:54:02.108Z,1011.96
2022-08-03T07:55:02.104Z,1011.97
2022-08-03T07:56:02.114Z,1011.93
2022-08-03T07:57:02.825Z,1011.93
2022-08-03T07:58:02.068Z,1011.98
2022-08-03T07:59:02.065Z,1011.97
2022-08-03T08:00:02.815Z,1011.99
2022-08-03T08:01:02.116Z,1012.00
2022-08-03T08:02:02.031Z,1011.99
2022-08-03T08:03:02.021Z,1011.99
2022-08-03T08:04:02.031Z,1012.02
2022-08-03T08:05:05.552Z,1012.01
2022-08-03T08:06:01.992Z,1011.97
2022-08-03T08:07:01.998Z,1011.97
2022-08-03T08:08:01.973Z,1011.99
2022-08-03T08:09:01.989Z,1012.05
2022-08-03T08:10:01.958Z,1012.01
2022-08-03T08:11:01.947Z,1012.05
2022-08-03T08:12:01.935Z,1011.93
2022-08-03T08:13:01.941Z,1011.99
2022-08-03T08:14:11.358Z,1011.98
2022-08-03T08:15:01.937Z,1012.07
2022-08-03T08:16:02.127Z,1012.09
2022-08-03T08:17:05.647Z,1012.05
2022-08-03T08:18:02.885Z,1012.06
2022-08-03T08:19:01.882Z,1012.09
2022-08-03T08:20:02.263Z,1012.07
2022-08-03T08:21:01.886Z,1012.07
2022-08-03T08:22:02.993Z,1012.07
2022-08-03T08:23:02.806Z,1012.05
2022-08-03T08:24:02.332Z,1012.07
2022-08-03T08:25:01.878Z,1012.07
2022-08-03T08:26:01.815Z,1012.08
2022-08-03T08:27:01.805Z,1012.08
2022-08-03T08:28:29.099Z,1012.05
2022-08-03T08:29:02.792Z,1012.10
2022-08-03T08:30:10.438Z,1012.12
2022-08-03T08:31:02.770Z,1012.15
2022-08-03T08:32:01.750Z,1012.13
2022-08-03T08:33:01.754Z,1012.16
2022-08-03T08:34:04.121Z,1012.18
2022-08-03T08:35:02.074Z,1012.16
2022-08-03T08:36:01.735Z,1012.16
2022-08-03T08:37:01.704Z,1012.17
2022-08-03T08:38:05.774Z,1012.08
2022-08-03T08:39:01.684Z,1012.16
2022-08-03T08:40:01.702Z,1012.07
2022-08-03T08:41:01.676Z,1012.09
2022-08-03T08:42:01.662Z,1012.17
2022-08-03T08:43:01.675Z,1012.17
2022-08-03T08:44:01.637Z,1012.19
2022-08-03T08:45:01.648Z,1012.11
2022-08-03T08:46:01.629Z,1012.19
2022-08-03T08:47:01.622Z,1012.18
2022-08-03T08:48:05.419Z,1012.19
2022-08-03T08:49:04.787Z,1012.19
2022-08-03T08:50:10.243Z,1012.23
2022-08-03T08:51:03.470Z,1012.19
2022-08-03T08:52:01.812Z,1012.16
2022-08-03T08:53:01.564Z,1012.21
2022-08-03T08:54:01.848Z,1012.16
2022-08-03T08:55:01.558Z,1012.16
2022-08-03T08:56:01.731Z,1012.22
2022-08-03T08:57:01.533Z,1012.17
2022-08-03T08:58:01.516Z,1012.18
2022-08-03T08:59:01.512Z,1012.16
2022-08-03T09:00:01.564Z,1012.19
2022-08-03T09:01:01.536Z,1012.21
2022-08-03T09:02:01.492Z,1012.23
2022-08-03T09:03:01.468Z,1012.17
2022-08-03T09:04:01.458Z,1012.22
2022-08-03T09:05:06.852Z,1012.20
2022-08-03T09:06:02.601Z,1012.19
2022-08-03T09:07:19.211Z,1012.25
2022-08-03T09:08:02.428Z,1012.27
2022-08-03T09:09:01.914Z,1012.18
2022-08-03T09:10:12.246Z,1012.24
2022-08-03T09:11:03.345Z,1012.22
2022-08-03T09:12:21.086Z,1012.14
2022-08-03T09:13:02.401Z,1012.18
2022-08-03T09:14:01.371Z,1012.12
2022-08-03T09:15:16.432Z,1012.15
2022-08-03T09:16:02.360Z,1012.18
2022-08-03T09:17:01.359Z,1012.17
2022-08-03T09:18:01.353Z,1012.22
2022-08-03T09:19:01.340Z,1012.17
2022-08-03T09:20:03.564Z,1012.11
2022-08-03T09:21:14.800Z,1012.07
2022-08-03T09:22:02.304Z,1012.10
2022-08-03T09:23:01.310Z,1012.04
2022-08-03T09:24:03.913Z,1012.04
2022-08-03T09:25:23.170Z,1012.10
2022-08-03T09:26:02.270Z,1012.09
2022-08-03T09:27:01.265Z,1012.05
2022-08-03T09:28:01.406Z,1012.03
2022-08-03T09:29:05.948Z,1011.97
2022-08-03T09:30:02.241Z,1012.13
2022-08-03T09:31:01.236Z,1012.04
2022-08-03T09:32:01.255Z,1012.08
2022-08-03T09:33:01.213Z,1012.04
2022-08-03T09:34:01.209Z,1012.07
2022-08-03T09:35:01.195Z,1012.02
2022-08-03T09:36:01.204Z,1011.92
2022-08-03T09:37:01.184Z,1011.98
2022-08-03T09:38:12.213Z,1012.02
2022-08-03T09:39:02.165Z,1012.07
2022-08-03T09:40:01.156Z,1012.06
2022-08-03T09:41:01.313Z,1012.10
2022-08-03T09:42:01.139Z,1012.07
2022-08-03T09:43:01.132Z,1012.09
2022-08-03T09:44:01.120Z,1012.02
2022-08-03T09:45:01.131Z,1012.14
2022-08-03T09:46:01.130Z,1012.06
2022-08-03T09:47:01.131Z,1012.04
2022-08-03T09:48:01.084Z,1012.08
2022-08-03T09:49:01.157Z,1012.02
2022-08-03T09:50:01.070Z,1012.02
2022-08-03T09:51:14.141Z,1012.03
2022-08-03T09:52:33.568Z,1012.16
2022-08-03T09:53:02.121Z,1012.01
2022-08-03T09:54:01.038Z,1012.04
2022-08-03T09:55:01.045Z,1012.04
2022-08-03T09:56:34.378Z,1012.19
2022-08-03T09:57:02.014Z,1012.10
2022-08-03T09:58:01.218Z,1012.13
2022-08-03T09:59:00.999Z,1012.07
2022-08-03T10:00:06.284Z,1012.11
2022-08-03T10:01:02.078Z,1012.12
2022-08-03T10:02:00.974Z,1012.08
2022-08-03T10:03:00.967Z,1012.04
2022-08-03T10:04:05.191Z,1012.01
2022-08-03T10:05:00.964Z,1012.07
2022-08-03T10:06:00.947Z,1012.05
2022-08-03T10:07:00.932Z,1012.01
2022-08-03T10:08:00.923Z,1012.01
2022-08-03T10:09:00.932Z,1011.99
2022-08-03T10:10:30.709Z,1011.99
2022-08-03T10:11:01.901Z,1012.00
2022-08-03T10:12:00.892Z,1011.95
2022-08-03T10:13:00.885Z,1011.91
2022-08-03T10:14:01.273Z,1011.88
2022-08-03T10:15:00.892Z,1011.92
2022-08-03T10:16:21.662Z,1011.88
2022-08-03T10:17:01.852Z,1011.91
2022-08-03T10:18:00.850Z,1011.94
2022-08-03T10:19:00.862Z,1011.77
2022-08-03T10:20:00.844Z,1011.86
2022-08-03T10:21:00.915Z,1011.94
2022-08-03T10:22:00.808Z,1011.85
2022-08-03T10:23:01.356Z,1011.88
2022-08-03T10:24:00.796Z,1011.89
2022-08-03T10:25:00.804Z,1011.83
2022-08-03T10:26:00.777Z,1011.83
2022-08-03T10:27:00.777Z,1011.83
2022-08-03T10:28:00.779Z,1011.87
2022-08-03T10:29:00.763Z,1011.83
2022-08-03T10:30:00.746Z,1011.85
2022-08-03T10:31:00.760Z,1011.82
2022-08-03T10:32:00.732Z,1011.81
2022-08-03T10:33:00.723Z,1011.78
2022-08-03T10:34:00.956Z,1011.79
2022-08-03T10:35:04.051Z,1011.78
2022-08-03T10:36:01.716Z,1011.76
2022-08-03T10:37:00.706Z,1011.80
2022-08-03T10:38:00.690Z,1011.81
2022-08-03T10:39:00.682Z,1011.76
2022-08-03T10:40:00.682Z,1011.73
2022-08-03T10:41:00.659Z,1011.68
2022-08-03T10:42:02.652Z,1011.60
2022-08-03T10:43:00.642Z,1011.59
2022-08-03T10:44:00.655Z,1011.58
2022-08-03T10:45:00.648Z,1011.62
2022-08-03T10:46:00.618Z,1011.63
2022-08-03T10:47:00.640Z,1011.65
2022-08-03T10:48:00.604Z,1011.65
2022-08-03T10:49:00.967Z,1011.72
2022-08-03T10:50:00.586Z,1011.66
2022-08-03T10:51:00.599Z,1011.65
2022-08-03T10:52:00.584Z,1011.72
2022-08-03T10:53:03.807Z,1011.70
2022-08-03T10:54:01.722Z,1011.65
2022-08-03T10:55:00.566Z,1011.67
2022-08-03T10:56:00.559Z,1011.60
2022-08-03T10:57:03.376Z,1011.66
2022-08-03T10:58:01.528Z,1011.62
2022-08-03T10:59:00.562Z,1011.67
2022-08-03T11:00:00.592Z,1011.63
2022-08-03T11:01:00.590Z,1011.65
2022-08-03T11:02:01.222Z,1011.52
2022-08-03T11:03:00.486Z,1011.58
2022-08-03T11:04:00.490Z,1011.53
2022-08-03T11:05:00.475Z,1011.55
2022-08-03T11:06:00.491Z,1011.55
2022-08-03T11:07:00.454Z,1011.51
2022-08-03T11:08:00.461Z,1011.52
2022-08-03T11:09:00.456Z,1011.49
2022-08-03T11:10:00.447Z,1011.48
2022-08-03T11:11:00.430Z,1011.57
2022-08-03T11:12:00.480Z,1011.56
2022-08-03T11:13:00.413Z,1011.51
2022-08-03T11:14:00.920Z,1011.52
2022-08-03T11:15:00.393Z,1011.48
2022-08-03T11:16:02.202Z,1011.50
2022-08-03T11:17:00.381Z,1011.52
2022-08-03T11:18:00.395Z,1011.45
2022-08-03T11:19:00.375Z,1011.45
2022-08-03T11:20:00.362Z,1011.41
2022-08-03T11:21:00.369Z,1011.44
2022-08-03T11:22:00.340Z,1011.50
2022-08-03T11:23:00.352Z,1011.44
2022-08-03T11:24:04.514Z,1011.38
2022-08-03T11:25:01.351Z,1011.39
2022-08-03T11:26:00.351Z,1011.35
2022-08-03T11:27:05.566Z,1011.41
2022-08-03T11:28:01.324Z,1011.42
2022-08-03T11:29:00.573Z,1011.40
2022-08-03T11:30:00.292Z,1011.37
2022-08-03T11:31:00.282Z,1011.36
2022-08-03T11:32:00.266Z,1011.32
2022-08-03T11:33:00.275Z,1011.29
2022-08-03T11:34:00.280Z,1011.28
2022-08-03T11:35:00.246Z,1011.41
2022-08-03T11:36:00.250Z,1011.41
2022-08-03T11:37:00.223Z,1011.42
2022-08-03T11:38:04.396Z,1011.43
2022-08-03T11:39:01.235Z,1011.41
2022-08-03T11:40:02.385Z,1011.39
2022-08-03T11:41:00.193Z,1011.40
2022-08-03T11:42:00.492Z,1011.45
2022-08-03T11:43:00.195Z,1011.42
2022-08-03T11:44:00.203Z,1011.47
2022-08-03T11:45:00.162Z,1011.48
2022-08-03T11:46:00.315Z,1011.38
2022-08-03T11:47:00.142Z,1011.44
2022-08-03T11:48:00.432Z,1011.43
2022-08-03T11:49:00.217Z,1011.41
2022-08-03T11:50:00.288Z,1011.39
2022-08-03T11:51:00.111Z,1011.25
2022-08-03T11:52:00.112Z,1011.31
2022-08-03T11:53:00.096Z,1011.34
2022-08-03T11:54:00.116Z,1011.26
2022-08-03T11:55:00.089Z,1011.26
2022-08-03T11:56:00.109Z,1011.29
2022-08-03T11:57:00.088Z,1011.31
2022-08-03T11:59:15.187Z,1011.32
2022-08-03T11:59:20.226Z,1011.35
2022-08-03T12:00:01.050Z,1011.42
2022-08-03T12:01:00.428Z,1011.39
2022-08-03T12:02:00.032Z,1011.33
2022-08-03T12:03:00.114Z,1011.33
2022-08-03T12:04:00.031Z,1011.29
2022-08-03T12:05:00.120Z,1011.28